sensor_id;sensor_type;location;lat;lon;timestamp;P1;durP1;ratioP1;P2;durP2;ratioP2
73550;SDS011;61816;53.582;10.096;2022-07-10T00:01:01;18.98;;;2.15;;
73550;SDS011;61816;53.582;10.096;2022-07-10T00:03:27;18.95;;;2.40;;
73550;SDS011;61816;53.582;10.096;2022-07-10T00:05:52;19.80;;;2.10;;
73550;SDS011;61816;53.582;10.096;2022-07-10T00:08:17;10.70;;;1.52;;
73550;SDS011;61816;53.582;10.096;2022-07-10T00:10:43;9.52;;;1.58;;
73550;SDS011;61816;53.582;10.096;2022-07-10T00:13:08;7.28;;;1.50;;
73550;SDS011;61816;53.582;10.096;2022-07-10T00:15:33;13.23;;;2.38;;
73550;SDS011;61816;53.582;10.096;2022-07-10T00:17:59;11.50;;;1.73;;
73550;SDS011;61816;53.582;10.096;2022-07-10T00:20:24;12.27;;;2.45;;
73550;SDS011;61816;53.582;10.096;2022-07-10T00:22:50;10.63;;;2.15;;
73550;SDS011;61816;53.582;10.096;2022-07-10T00:25:15;13.50;;;2.22;;
73550;SDS011;61816;53.582;10.096;2022-07-10T00:27:41;17.02;;;2.30;;
73550;SDS011;61816;53.582;10.096;2022-07-10T00:30:07;14.25;;;1.73;;
73550;SDS011;61816;53.582;10.096;2022-07-10T00:32:33;11.18;;;2.13;;
73550;SDS011;61816;53.582;10.096;2022-07-10T00:34:58;14.07;;;2.08;;
73550;SDS011;61816;53.582;10.096;2022-07-10T00:37:24;14.20;;;2.03;;
73550;SDS011;61816;53.582;10.096;2022-07-10T00:39:49;14.60;;;1.92;;
73550;SDS011;61816;53.582;10.096;2022-07-10T00:42:14;10.35;;;1.75;;
73550;SDS011;61816;53.582;10.096;2022-07-10T00:44:41;14.32;;;2.55;;
73550;SDS011;61816;53.582;10.096;2022-07-10T00:47:07;10.23;;;2.00;;
73550;SDS011;61816;53.582;10.096;2022-07-10T00:49:34;13.30;;;1.88;;
73550;SDS011;61816;53.582;10.096;2022-07-10T00:52:02;19.67;;;3.38;;
73550;SDS011;61816;53.582;10.096;2022-07-10T00:54:29;11.00;;;1.85;;
73550;SDS011;61816;53.582;10.096;2022-07-10T00:56:55;9.35;;;1.92;;
73550;SDS011;61816;53.582;10.096;2022-07-10T00:59:22;14.30;;;2.40;;
73550;SDS011;61816;53.582;10.096;2022-07-10T01:01:48;21.65;;;2.80;;
73550;SDS011;61816;53.582;10.096;2022-07-10T01:04:15;20.70;;;2.25;;
73550;SDS011;61816;53.582;10.096;2022-07-10T01:06:41;15.77;;;2.92;;
73550;SDS011;61816;53.582;10.096;2022-07-10T01:09:06;16.58;;;2.08;;
73550;SDS011;61816;53.582;10.096;2022-07-10T01:11:32;11.52;;;2.03;;
73550;SDS011;61816;53.582;10.096;2022-07-10T01:13:58;9.65;;;2.25;;
73550;SDS011;61816;53.582;10.096;2022-07-10T01:16:23;12.73;;;2.17;;
73550;SDS011;61816;53.582;10.096;2022-07-10T01:18:49;10.43;;;2.10;;
73550;SDS011;61816;53.582;10.096;2022-07-10T01:21:27;14.98;;;2.47;;
73550;SDS011;61816;53.582;10.096;2022-07-10T01:23:54;10.25;;;2.38;;
73550;SDS011;61816;53.582;10.096;2022-07-10T01:26:21;17.02;;;2.42;;
73550;SDS011;61816;53.582;10.096;2022-07-10T01:28:49;8.02;;;1.45;;
73550;SDS011;61816;53.582;10.096;2022-07-10T01:31:14;22.33;;;2.35;;
73550;SDS011;61816;53.582;10.096;2022-07-10T01:33:41;12.40;;;2.15;;
73550;SDS011;61816;53.582;10.096;2022-07-10T01:36:07;13.35;;;2.70;;
73550;SDS011;61816;53.582;10.096;2022-07-10T01:38:33;12.65;;;2.00;;
73550;SDS011;61816;53.582;10.096;2022-07-10T01:40:58;12.90;;;1.90;;
73550;SDS011;61816;53.582;10.096;2022-07-10T01:43:24;14.98;;;2.28;;
73550;SDS011;61816;53.582;10.096;2022-07-10T01:45:49;7.50;;;1.55;;
73550;SDS011;61816;53.582;10.096;2022-07-10T01:48:16;18.52;;;2.65;;
73550;SDS011;61816;53.582;10.096;2022-07-10T01:50:41;21.23;;;2.50;;
73550;SDS011;61816;53.582;10.096;2022-07-10T01:53:08;24.02;;;2.22;;
73550;SDS011;61816;53.582;10.096;2022-07-10T01:55:34;9.77;;;2.13;;
73550;SDS011;61816;53.582;10.096;2022-07-10T01:57:59;13.90;;;2.05;;
73550;SDS011;61816;53.582;10.096;2022-07-10T02:00:25;16.27;;;2.40;;
73550;SDS011;61816;53.582;10.096;2022-07-10T02:02:50;14.50;;;2.47;;
73550;SDS011;61816;53.582;10.096;2022-07-10T02:05:34;14.63;;;2.40;;
73550;SDS011;61816;53.582;10.096;2022-07-10T02:08:00;9.68;;;2.10;;
73550;SDS011;61816;53.582;10.096;2022-07-10T02:10:28;19.40;;;2.15;;
73550;SDS011;61816;53.582;10.096;2022-07-10T02:12:54;5.55;;;1.75;;
73550;SDS011;61816;53.582;10.096;2022-07-10T02:15:21;11.93;;;2.20;;
73550;SDS011;61816;53.582;10.096;2022-07-10T02:17:46;14.88;;;2.08;;
73550;SDS011;61816;53.582;10.096;2022-07-10T02:20:12;16.25;;;2.95;;
73550;SDS011;61816;53.582;10.096;2022-07-10T02:22:37;10.05;;;2.42;;
73550;SDS011;61816;53.582;10.096;2022-07-10T02:25:03;13.70;;;2.55;;
73550;SDS011;61816;53.582;10.096;2022-07-10T02:27:29;21.30;;;2.47;;
73550;SDS011;61816;53.582;10.096;2022-07-10T02:29:55;14.05;;;1.80;;
73550;SDS011;61816;53.582;10.096;2022-07-10T02:32:20;15.27;;;2.67;;
73550;SDS011;61816;53.582;10.096;2022-07-10T02:34:47;13.88;;;2.38;;
73550;SDS011;61816;53.582;10.096;2022-07-10T02:37:12;8.88;;;1.88;;
73550;SDS011;61816;53.582;10.096;2022-07-10T02:39:37;20.15;;;2.20;;
73550;SDS011;61816;53.582;10.096;2022-07-10T02:42:03;11.15;;;2.53;;
73550;SDS011;61816;53.582;10.096;2022-07-10T02:44:29;14.20;;;3.05;;
73550;SDS011;61816;53.582;10.096;2022-07-10T02:46:54;11.55;;;2.38;;
73550;SDS011;61816;53.582;10.096;2022-07-10T02:49:20;11.57;;;2.10;;
73550;SDS011;61816;53.582;10.096;2022-07-10T02:51:45;16.65;;;2.50;;
73550;SDS011;61816;53.582;10.096;2022-07-10T02:54:11;21.40;;;2.83;;
73550;SDS011;61816;53.582;10.096;2022-07-10T02:56:36;9.95;;;1.75;;
73550;SDS011;61816;53.582;10.096;2022-07-10T02:59:01;12.40;;;2.03;;
73550;SDS011;61816;53.582;10.096;2022-07-10T03:01:27;13.45;;;3.03;;
73550;SDS011;61816;53.582;10.096;2022-07-10T03:03:52;14.98;;;2.28;;
73550;SDS011;61816;53.582;10.096;2022-07-10T03:06:18;19.40;;;2.72;;
73550;SDS011;61816;53.582;10.096;2022-07-10T03:08:43;13.35;;;2.53;;
73550;SDS011;61816;53.582;10.096;2022-07-10T03:11:09;17.83;;;2.85;;
73550;SDS011;61816;53.582;10.096;2022-07-10T03:13:34;13.52;;;2.40;;
73550;SDS011;61816;53.582;10.096;2022-07-10T03:16:00;12.30;;;2.80;;
73550;SDS011;61816;53.582;10.096;2022-07-10T03:18:25;19.05;;;3.17;;
73550;SDS011;61816;53.582;10.096;2022-07-10T03:20:51;23.42;;;2.95;;
73550;SDS011;61816;53.582;10.096;2022-07-10T03:23:16;14.68;;;2.83;;
73550;SDS011;61816;53.582;10.096;2022-07-10T03:25:41;22.20;;;3.25;;
73550;SDS011;61816;53.582;10.096;2022-07-10T03:28:07;11.93;;;3.03;;
73550;SDS011;61816;53.582;10.096;2022-07-10T03:30:32;18.90;;;2.85;;
73550;SDS011;61816;53.582;10.096;2022-07-10T03:32:58;21.05;;;3.30;;
73550;SDS011;61816;53.582;10.096;2022-07-10T03:35:23;16.83;;;3.55;;
73550;SDS011;61816;53.582;10.096;2022-07-10T03:37:50;16.88;;;3.10;;
73550;SDS011;61816;53.582;10.096;2022-07-10T03:40:16;21.92;;;3.42;;
73550;SDS011;61816;53.582;10.096;2022-07-10T03:42:41;14.57;;;3.20;;
73550;SDS011;61816;53.582;10.096;2022-07-10T03:45:07;27.33;;;3.25;;
73550;SDS011;61816;53.582;10.096;2022-07-10T03:47:33;18.48;;;2.63;;
73550;SDS011;61816;53.582;10.096;2022-07-10T03:49:58;21.33;;;4.75;;
73550;SDS011;61816;53.582;10.096;2022-07-10T03:52:23;33.13;;;3.70;;
73550;SDS011;61816;53.582;10.096;2022-07-10T03:54:49;30.30;;;4.30;;
73550;SDS011;61816;53.582;10.096;2022-07-10T03:57:14;23.63;;;3.92;;
73550;SDS011;61816;53.582;10.096;2022-07-10T03:59:58;27.50;;;3.25;;
73550;SDS011;61816;53.582;10.096;2022-07-10T04:02:23;15.43;;;3.08;;
73550;SDS011;61816;53.582;10.096;2022-07-10T04:04:49;30.17;;;3.90;;
73550;SDS011;61816;53.582;10.096;2022-07-10T04:07:14;27.23;;;4.25;;
73550;SDS011;61816;53.582;10.096;2022-07-10T04:09:40;27.48;;;3.92;;
73550;SDS011;61816;53.582;10.096;2022-07-10T04:12:05;29.45;;;4.43;;
73550;SDS011;61816;53.582;10.096;2022-07-10T04:14:31;26.65;;;4.10;;
73550;SDS011;61816;53.582;10.096;2022-07-10T04:16:56;35.30;;;4.35;;
73550;SDS011;61816;53.582;10.096;2022-07-10T04:19:21;26.15;;;4.10;;
73550;SDS011;61816;53.582;10.096;2022-07-10T04:21:47;29.17;;;4.80;;
73550;SDS011;61816;53.582;10.096;2022-07-10T04:24:13;33.67;;;4.20;;
73550;SDS011;61816;53.582;10.096;2022-07-10T04:26:38;25.63;;;3.97;;
73550;SDS011;61816;53.582;10.096;2022-07-10T04:29:03;24.02;;;4.20;;
73550;SDS011;61816;53.582;10.096;2022-07-10T04:31:29;27.33;;;4.35;;
73550;SDS011;61816;53.582;10.096;2022-07-10T04:33:54;37.65;;;5.22;;
73550;SDS011;61816;53.582;10.096;2022-07-10T04:36:22;21.65;;;4.15;;
73550;SDS011;61816;53.582;10.096;2022-07-10T04:38:48;25.50;;;5.43;;
73550;SDS011;61816;53.582;10.096;2022-07-10T04:41:13;35.83;;;5.72;;
73550;SDS011;61816;53.582;10.096;2022-07-10T04:43:39;33.00;;;4.97;;
73550;SDS011;61816;53.582;10.096;2022-07-10T04:46:04;23.33;;;3.85;;
73550;SDS011;61816;53.582;10.096;2022-07-10T04:48:31;27.90;;;5.22;;
73550;SDS011;61816;53.582;10.096;2022-07-10T04:50:57;32.28;;;4.70;;
73550;SDS011;61816;53.582;10.096;2022-07-10T04:53:22;24.25;;;4.18;;
73550;SDS011;61816;53.582;10.096;2022-07-10T04:55:48;25.35;;;4.68;;
73550;SDS011;61816;53.582;10.096;2022-07-10T04:58:13;32.55;;;4.90;;
73550;SDS011;61816;53.582;10.096;2022-07-10T05:00:39;34.13;;;5.47;;
73550;SDS011;61816;53.582;10.096;2022-07-10T05:03:04;30.92;;;5.25;;
73550;SDS011;61816;53.582;10.096;2022-07-10T05:05:29;26.92;;;4.78;;
73550;SDS011;61816;53.582;10.096;2022-07-10T05:07:55;35.88;;;4.53;;
73550;SDS011;61816;53.582;10.096;2022-07-10T05:10:20;36.08;;;5.00;;
73550;SDS011;61816;53.582;10.096;2022-07-10T05:12:46;32.55;;;5.68;;
73550;SDS011;61816;53.582;10.096;2022-07-10T05:15:11;33.63;;;5.38;;
73550;SDS011;61816;53.582;10.096;2022-07-10T05:17:37;30.77;;;5.97;;
73550;SDS011;61816;53.582;10.096;2022-07-10T05:20:02;30.35;;;4.63;;
73550;SDS011;61816;53.582;10.096;2022-07-10T05:22:28;33.13;;;5.63;;
73550;SDS011;61816;53.582;10.096;2022-07-10T05:24:55;42.85;;;5.07;;
73550;SDS011;61816;53.582;10.096;2022-07-10T05:27:21;23.60;;;4.45;;
73550;SDS011;61816;53.582;10.096;2022-07-10T05:29:46;36.28;;;5.15;;
73550;SDS011;61816;53.582;10.096;2022-07-10T05:32:13;27.45;;;4.03;;
73550;SDS011;61816;53.582;10.096;2022-07-10T05:34:38;32.53;;;4.78;;
73550;SDS011;61816;53.582;10.096;2022-07-10T05:37:04;30.50;;;5.30;;
73550;SDS011;61816;53.582;10.096;2022-07-10T05:39:30;34.83;;;5.88;;
73550;SDS011;61816;53.582;10.096;2022-07-10T05:41:55;33.17;;;5.47;;
73550;SDS011;61816;53.582;10.096;2022-07-10T05:44:21;26.52;;;4.70;;
73550;SDS011;61816;53.582;10.096;2022-07-10T05:46:46;29.77;;;4.45;;
73550;SDS011;61816;53.582;10.096;2022-07-10T05:49:11;33.38;;;4.78;;
73550;SDS011;61816;53.582;10.096;2022-07-10T05:51:37;25.00;;;4.35;;
73550;SDS011;61816;53.582;10.096;2022-07-10T05:54:03;30.42;;;4.97;;
73550;SDS011;61816;53.582;10.096;2022-07-10T05:56:28;23.50;;;3.92;;
73550;SDS011;61816;53.582;10.096;2022-07-10T05:58:54;25.38;;;4.68;;
73550;SDS011;61816;53.582;10.096;2022-07-10T06:01:21;28.00;;;5.25;;
73550;SDS011;61816;53.582;10.096;2022-07-10T06:03:47;27.60;;;4.70;;
73550;SDS011;61816;53.582;10.096;2022-07-10T06:06:12;31.98;;;4.97;;
73550;SDS011;61816;53.582;10.096;2022-07-10T06:08:40;29.48;;;5.00;;
73550;SDS011;61816;53.582;10.096;2022-07-10T06:11:09;25.15;;;4.85;;
73550;SDS011;61816;53.582;10.096;2022-07-10T06:13:35;29.70;;;4.95;;
73550;SDS011;61816;53.582;10.096;2022-07-10T06:16:01;28.92;;;4.75;;
73550;SDS011;61816;53.582;10.096;2022-07-10T06:18:26;34.08;;;4.80;;
73550;SDS011;61816;53.582;10.096;2022-07-10T06:20:51;30.50;;;5.07;;
73550;SDS011;61816;53.582;10.096;2022-07-10T06:23:17;32.25;;;5.72;;
73550;SDS011;61816;53.582;10.096;2022-07-10T06:25:42;30.67;;;5.93;;
73550;SDS011;61816;53.582;10.096;2022-07-10T06:28:07;33.50;;;5.18;;
73550;SDS011;61816;53.582;10.096;2022-07-10T06:30:33;35.55;;;5.10;;
73550;SDS011;61816;53.582;10.096;2022-07-10T06:32:58;30.27;;;5.03;;
73550;SDS011;61816;53.582;10.096;2022-07-10T06:35:23;34.88;;;5.75;;
73550;SDS011;61816;53.582;10.096;2022-07-10T06:37:49;28.02;;;4.03;;
73550;SDS011;61816;53.582;10.096;2022-07-10T06:40:14;30.55;;;3.78;;
73550;SDS011;61816;53.582;10.096;2022-07-10T06:42:42;27.63;;;3.72;;
73550;SDS011;61816;53.582;10.096;2022-07-10T06:45:08;24.40;;;4.13;;
73550;SDS011;61816;53.582;10.096;2022-07-10T06:47:34;31.02;;;4.97;;
73550;SDS011;61816;53.582;10.096;2022-07-10T06:50:17;27.10;;;5.10;;
73550;SDS011;61816;53.582;10.096;2022-07-10T06:52:43;29.60;;;3.58;;
73550;SDS011;61816;53.582;10.096;2022-07-10T06:55:08;26.70;;;4.03;;
73550;SDS011;61816;53.582;10.096;2022-07-10T06:57:34;20.73;;;3.05;;
73550;SDS011;61816;53.582;10.096;2022-07-10T07:00:00;28.08;;;4.55;;
73550;SDS011;61816;53.582;10.096;2022-07-10T07:02:26;20.95;;;4.00;;
73550;SDS011;61816;53.582;10.096;2022-07-10T07:04:52;34.78;;;4.40;;
73550;SDS011;61816;53.582;10.096;2022-07-10T07:07:17;28.08;;;4.55;;
73550;SDS011;61816;53.582;10.096;2022-07-10T07:09:43;25.80;;;3.72;;
73550;SDS011;61816;53.582;10.096;2022-07-10T07:12:09;21.42;;;3.65;;
73550;SDS011;61816;53.582;10.096;2022-07-10T07:14:35;34.20;;;4.60;;
73550;SDS011;61816;53.582;10.096;2022-07-10T07:17:00;28.90;;;4.28;;
73550;SDS011;61816;53.582;10.096;2022-07-10T07:19:31;19.75;;;3.97;;
73550;SDS011;61816;53.582;10.096;2022-07-10T07:22:24;26.02;;;5.03;;
73550;SDS011;61816;53.582;10.096;2022-07-10T07:25:09;19.75;;;3.42;;
73550;SDS011;61816;53.582;10.096;2022-07-10T07:27:36;28.83;;;5.45;;
73550;SDS011;61816;53.582;10.096;2022-07-10T07:30:09;29.40;;;4.45;;
73550;SDS011;61816;53.582;10.096;2022-07-10T07:32:37;29.70;;;4.43;;
73550;SDS011;61816;53.582;10.096;2022-07-10T07:35:03;29.10;;;4.03;;
73550;SDS011;61816;53.582;10.096;2022-07-10T07:37:40;24.67;;;3.83;;
73550;SDS011;61816;53.582;10.096;2022-07-10T07:40:11;22.58;;;4.68;;
73550;SDS011;61816;53.582;10.096;2022-07-10T07:42:37;18.15;;;3.55;;
73550;SDS011;61816;53.582;10.096;2022-07-10T07:45:03;30.27;;;4.03;;
73550;SDS011;61816;53.582;10.096;2022-07-10T07:47:30;18.77;;;3.83;;
73550;SDS011;61816;53.582;10.096;2022-07-10T07:49:56;25.27;;;4.47;;
73550;SDS011;61816;53.582;10.096;2022-07-10T07:52:21;29.85;;;3.67;;
73550;SDS011;61816;53.582;10.096;2022-07-10T07:54:48;18.85;;;3.97;;
73550;SDS011;61816;53.582;10.096;2022-07-10T07:57:13;23.98;;;3.65;;
73550;SDS011;61816;53.582;10.096;2022-07-10T07:59:39;21.92;;;3.50;;
73550;SDS011;61816;53.582;10.096;2022-07-10T08:02:05;37.80;;;4.55;;
73550;SDS011;61816;53.582;10.096;2022-07-10T08:04:31;15.43;;;3.35;;
73550;SDS011;61816;53.582;10.096;2022-07-10T08:06:56;18.55;;;3.50;;
73550;SDS011;61816;53.582;10.096;2022-07-10T08:09:22;27.83;;;3.83;;
73550;SDS011;61816;53.582;10.096;2022-07-10T08:11:47;22.42;;;3.60;;
73550;SDS011;61816;53.582;10.096;2022-07-10T08:14:13;26.40;;;4.00;;
73550;SDS011;61816;53.582;10.096;2022-07-10T08:16:40;16.88;;;3.42;;
73550;SDS011;61816;53.582;10.096;2022-07-10T08:19:05;20.52;;;3.67;;
73550;SDS011;61816;53.582;10.096;2022-07-10T08:21:31;24.85;;;3.65;;
73550;SDS011;61816;53.582;10.096;2022-07-10T08:23:57;18.92;;;3.83;;
73550;SDS011;61816;53.582;10.096;2022-07-10T08:26:23;28.20;;;3.63;;
73550;SDS011;61816;53.582;10.096;2022-07-10T08:28:49;22.05;;;3.67;;
73550;SDS011;61816;53.582;10.096;2022-07-10T08:31:15;14.05;;;3.53;;
73550;SDS011;61816;53.582;10.096;2022-07-10T08:33:40;17.17;;;2.88;;
73550;SDS011;61816;53.582;10.096;2022-07-10T08:36:06;13.02;;;3.28;;
73550;SDS011;61816;53.582;10.096;2022-07-10T08:38:31;19.33;;;2.88;;
73550;SDS011;61816;53.582;10.096;2022-07-10T08:40:57;27.33;;;4.47;;
73550;SDS011;61816;53.582;10.096;2022-07-10T08:43:24;18.77;;;3.63;;
73550;SDS011;61816;53.582;10.096;2022-07-10T08:45:50;22.90;;;3.70;;
73550;SDS011;61816;53.582;10.096;2022-07-10T08:48:20;20.70;;;3.70;;
73550;SDS011;61816;53.582;10.096;2022-07-10T08:50:49;21.40;;;3.00;;
73550;SDS011;61816;53.582;10.096;2022-07-10T08:53:24;17.23;;;2.78;;
73550;SDS011;61816;53.582;10.096;2022-07-10T08:55:57;20.42;;;3.30;;
73550;SDS011;61816;53.582;10.096;2022-07-10T08:58:24;24.90;;;3.97;;
73550;SDS011;61816;53.582;10.096;2022-07-10T09:00:51;25.08;;;3.85;;
73550;SDS011;61816;53.582;10.096;2022-07-10T09:03:16;23.00;;;3.17;;
73550;SDS011;61816;53.582;10.096;2022-07-10T09:05:42;20.08;;;3.85;;
73550;SDS011;61816;53.582;10.096;2022-07-10T09:08:26;30.45;;;3.38;;
73550;SDS011;61816;53.582;10.096;2022-07-10T09:11:16;17.92;;;3.38;;
73550;SDS011;61816;53.582;10.096;2022-07-10T09:13:49;24.42;;;3.80;;
73550;SDS011;61816;53.582;10.096;2022-07-10T09:16:25;18.65;;;5.40;;
73550;SDS011;61816;53.582;10.096;2022-07-10T09:18:53;20.85;;;3.03;;
73550;SDS011;61816;53.582;10.096;2022-07-10T09:21:19;12.15;;;2.55;;
73550;SDS011;61816;53.582;10.096;2022-07-10T09:23:44;14.75;;;3.17;;
73550;SDS011;61816;53.582;10.096;2022-07-10T09:26:09;17.52;;;3.08;;
73550;SDS011;61816;53.582;10.096;2022-07-10T09:28:35;14.35;;;2.60;;
73550;SDS011;61816;53.582;10.096;2022-07-10T09:31:00;18.02;;;3.47;;
73550;SDS011;61816;53.582;10.096;2022-07-10T09:33:26;18.05;;;3.58;;
73550;SDS011;61816;53.582;10.096;2022-07-10T09:41:21;17.23;;;3.10;;
73550;SDS011;61816;53.582;10.096;2022-07-10T09:46:22;20.90;;;3.30;;
73550;SDS011;61816;53.582;10.096;2022-07-10T09:49:02;15.55;;;3.28;;
73550;SDS011;61816;53.582;10.096;2022-07-10T09:51:30;26.00;;;4.80;;
73550;SDS011;61816;53.582;10.096;2022-07-10T09:53:59;22.05;;;3.72;;
73550;SDS011;61816;53.582;10.096;2022-07-10T09:56:27;21.77;;;4.22;;
73550;SDS011;61816;53.582;10.096;2022-07-10T09:58:58;16.38;;;3.30;;
73550;SDS011;61816;53.582;10.096;2022-07-10T10:01:27;22.85;;;3.42;;
73550;SDS011;61816;53.582;10.096;2022-07-10T10:03:54;19.67;;;2.63;;
73550;SDS011;61816;53.582;10.096;2022-07-10T10:06:25;15.85;;;2.75;;
73550;SDS011;61816;53.582;10.096;2022-07-10T10:09:04;17.25;;;2.97;;
73550;SDS011;61816;53.582;10.096;2022-07-10T10:11:33;14.75;;;2.70;;
73550;SDS011;61816;53.582;10.096;2022-07-10T10:14:00;20.63;;;3.22;;
73550;SDS011;61816;53.582;10.096;2022-07-10T10:16:27;13.38;;;2.55;;
73550;SDS011;61816;53.582;10.096;2022-07-10T10:18:53;14.52;;;2.63;;
73550;SDS011;61816;53.582;10.096;2022-07-10T10:21:39;18.65;;;3.17;;
73550;SDS011;61816;53.582;10.096;2022-07-10T10:24:05;17.02;;;2.97;;
73550;SDS011;61816;53.582;10.096;2022-07-10T10:26:32;13.73;;;2.30;;
73550;SDS011;61816;53.582;10.096;2022-07-10T10:28:59;17.98;;;3.03;;
73550;SDS011;61816;53.582;10.096;2022-07-10T10:31:27;9.63;;;2.78;;
73550;SDS011;61816;53.582;10.096;2022-07-10T10:33:55;14.82;;;2.80;;
73550;SDS011;61816;53.582;10.096;2022-07-10T10:39:15;24.38;;;2.80;;
73550;SDS011;61816;53.582;10.096;2022-07-10T10:41:42;10.00;;;2.22;;
73550;SDS011;61816;53.582;10.096;2022-07-10T10:49:20;17.55;;;2.65;;
73550;SDS011;61816;53.582;10.096;2022-07-10T10:54:22;13.65;;;2.58;;
73550;SDS011;61816;53.582;10.096;2022-07-10T10:57:10;12.40;;;2.28;;
73550;SDS011;61816;53.582;10.096;2022-07-10T11:04:50;10.07;;;2.47;;
73550;SDS011;61816;53.582;10.096;2022-07-10T11:10:31;11.68;;;2.03;;
73550;SDS011;61816;53.582;10.096;2022-07-10T11:18:37;14.05;;;2.78;;
73550;SDS011;61816;53.582;10.096;2022-07-10T11:21:02;14.02;;;2.70;;
73550;SDS011;61816;53.582;10.096;2022-07-10T11:23:35;9.65;;;2.15;;
73550;SDS011;61816;53.582;10.096;2022-07-10T11:29:21;19.88;;;2.50;;
73550;SDS011;61816;53.582;10.096;2022-07-10T11:31:53;11.95;;;2.33;;
73550;SDS011;61816;53.582;10.096;2022-07-10T11:34:20;11.20;;;2.88;;
73550;SDS011;61816;53.582;10.096;2022-07-10T11:36:47;12.60;;;2.35;;
73550;SDS011;61816;53.582;10.096;2022-07-10T11:39:13;10.43;;;2.72;;
73550;SDS011;61816;53.582;10.096;2022-07-10T11:41:42;7.28;;;2.63;;
73550;SDS011;61816;53.582;10.096;2022-07-10T11:44:15;12.80;;;2.45;;
73550;SDS011;61816;53.582;10.096;2022-07-10T11:46:42;19.20;;;2.45;;
73550;SDS011;61816;53.582;10.096;2022-07-10T11:49:13;9.15;;;1.98;;
73550;SDS011;61816;53.582;10.096;2022-07-10T11:51:40;9.15;;;2.20;;
73550;SDS011;61816;53.582;10.096;2022-07-10T11:56:38;20.47;;;3.00;;
73550;SDS011;61816;53.582;10.096;2022-07-10T11:59:07;15.68;;;3.15;;
73550;SDS011;61816;53.582;10.096;2022-07-10T12:01:35;17.17;;;3.00;;
73550;SDS011;61816;53.582;10.096;2022-07-10T12:04:10;14.98;;;2.38;;
73550;SDS011;61816;53.582;10.096;2022-07-10T12:06:37;15.27;;;2.10;;
73550;SDS011;61816;53.582;10.096;2022-07-10T12:09:10;13.48;;;2.78;;
73550;SDS011;61816;53.582;10.096;2022-07-10T12:11:38;10.48;;;2.38;;
73550;SDS011;61816;53.582;10.096;2022-07-10T12:14:12;16.27;;;2.40;;
73550;SDS011;61816;53.582;10.096;2022-07-10T12:16:39;10.85;;;2.50;;
73550;SDS011;61816;53.582;10.096;2022-07-10T12:19:07;10.30;;;2.25;;
73550;SDS011;61816;53.582;10.096;2022-07-10T12:21:33;14.05;;;2.70;;
73550;SDS011;61816;53.582;10.096;2022-07-10T12:24:00;10.68;;;2.30;;
73550;SDS011;61816;53.582;10.096;2022-07-10T12:26:36;8.57;;;2.35;;
73550;SDS011;61816;53.582;10.096;2022-07-10T12:29:03;13.30;;;2.35;;
73550;SDS011;61816;53.582;10.096;2022-07-10T12:31:33;19.98;;;2.67;;
73550;SDS011;61816;53.582;10.096;2022-07-10T12:34:00;8.20;;;2.35;;
73550;SDS011;61816;53.582;10.096;2022-07-10T12:36:43;14.27;;;2.63;;
73550;SDS011;61816;53.582;10.096;2022-07-10T12:39:11;17.95;;;2.63;;
73550;SDS011;61816;53.582;10.096;2022-07-10T12:44:34;14.27;;;2.45;;
73550;SDS011;61816;53.582;10.096;2022-07-10T12:47:00;15.75;;;2.90;;
73550;SDS011;61816;53.582;10.096;2022-07-10T12:49:52;20.58;;;3.25;;
73550;SDS011;61816;53.582;10.096;2022-07-10T12:52:20;24.98;;;4.55;;
73550;SDS011;61816;53.582;10.096;2022-07-10T12:54:46;25.85;;;3.72;;
73550;SDS011;61816;53.582;10.096;2022-07-10T12:57:11;13.10;;;2.53;;
73550;SDS011;61816;53.582;10.096;2022-07-10T12:59:37;22.55;;;3.13;;
73550;SDS011;61816;53.582;10.096;2022-07-10T13:02:19;16.10;;;2.53;;
73550;SDS011;61816;53.582;10.096;2022-07-10T13:04:53;11.38;;;2.33;;
73550;SDS011;61816;53.582;10.096;2022-07-10T13:07:28;14.20;;;2.95;;
73550;SDS011;61816;53.582;10.096;2022-07-10T13:09:55;17.48;;;2.90;;
73550;SDS011;61816;53.582;10.096;2022-07-10T13:12:21;22.67;;;2.65;;
73550;SDS011;61816;53.582;10.096;2022-07-10T13:14:46;13.65;;;2.92;;
73550;SDS011;61816;53.582;10.096;2022-07-10T13:17:12;18.70;;;2.88;;
73550;SDS011;61816;53.582;10.096;2022-07-10T13:19:37;10.93;;;2.53;;
73550;SDS011;61816;53.582;10.096;2022-07-10T13:22:03;14.57;;;2.72;;
73550;SDS011;61816;53.582;10.096;2022-07-10T13:24:29;15.77;;;2.33;;
73550;SDS011;61816;53.582;10.096;2022-07-10T13:26:54;14.80;;;3.35;;
73550;SDS011;61816;53.582;10.096;2022-07-10T13:29:22;7.18;;;2.28;;
73550;SDS011;61816;53.582;10.096;2022-07-10T13:31:47;21.35;;;3.53;;
73550;SDS011;61816;53.582;10.096;2022-07-10T13:34:13;11.98;;;2.78;;
73550;SDS011;61816;53.582;10.096;2022-07-10T13:36:38;16.80;;;2.67;;
73550;SDS011;61816;53.582;10.096;2022-07-10T13:39:04;9.90;;;2.35;;
73550;SDS011;61816;53.582;10.096;2022-07-10T13:41:29;22.30;;;3.35;;
73550;SDS011;61816;53.582;10.096;2022-07-10T13:43:55;14.98;;;2.30;;
73550;SDS011;61816;53.582;10.096;2022-07-10T13:46:20;17.05;;;3.60;;
73550;SDS011;61816;53.582;10.096;2022-07-10T13:48:46;20.35;;;2.92;;
73550;SDS011;61816;53.582;10.096;2022-07-10T13:51:12;12.38;;;2.33;;
73550;SDS011;61816;53.582;10.096;2022-07-10T13:53:37;10.77;;;2.25;;
73550;SDS011;61816;53.582;10.096;2022-07-10T13:56:06;10.23;;;2.25;;
73550;SDS011;61816;53.582;10.096;2022-07-10T13:58:33;13.68;;;2.90;;
73550;SDS011;61816;53.582;10.096;2022-07-10T14:00:59;15.10;;;2.90;;
73550;SDS011;61816;53.582;10.096;2022-07-10T14:03:25;17.67;;;2.92;;
73550;SDS011;61816;53.582;10.096;2022-07-10T14:05:52;22.25;;;3.40;;
73550;SDS011;61816;53.582;10.096;2022-07-10T14:08:17;25.00;;;3.95;;
73550;SDS011;61816;53.582;10.096;2022-07-10T14:10:43;16.55;;;3.35;;
73550;SDS011;61816;53.582;10.096;2022-07-10T14:13:09;12.32;;;2.38;;
73550;SDS011;61816;53.582;10.096;2022-07-10T14:15:35;14.18;;;2.90;;
73550;SDS011;61816;53.582;10.096;2022-07-10T14:18:01;20.42;;;2.85;;
73550;SDS011;61816;53.582;10.096;2022-07-10T14:20:27;18.67;;;3.40;;
73550;SDS011;61816;53.582;10.096;2022-07-10T14:23:14;22.17;;;3.22;;
73550;SDS011;61816;53.582;10.096;2022-07-10T14:25:39;12.40;;;2.17;;
73550;SDS011;61816;53.582;10.096;2022-07-10T14:28:05;14.43;;;2.20;;
73550;SDS011;61816;53.582;10.096;2022-07-10T14:30:30;17.10;;;2.55;;
73550;SDS011;61816;53.582;10.096;2022-07-10T14:32:56;12.70;;;2.80;;
73550;SDS011;61816;53.582;10.096;2022-07-10T14:35:21;18.35;;;2.92;;
73550;SDS011;61816;53.582;10.096;2022-07-10T14:37:47;22.45;;;3.38;;
73550;SDS011;61816;53.582;10.096;2022-07-10T14:40:12;22.15;;;2.67;;
73550;SDS011;61816;53.582;10.096;2022-07-10T14:42:38;11.52;;;2.33;;
73550;SDS011;61816;53.582;10.096;2022-07-10T14:45:04;16.27;;;2.20;;
73550;SDS011;61816;53.582;10.096;2022-07-10T14:47:32;15.43;;;2.50;;
73550;SDS011;61816;53.582;10.096;2022-07-10T14:49:59;12.57;;;2.55;;
73550;SDS011;61816;53.582;10.096;2022-07-10T14:52:24;12.70;;;2.10;;
73550;SDS011;61816;53.582;10.096;2022-07-10T14:54:52;11.43;;;2.20;;
73550;SDS011;61816;53.582;10.096;2022-07-10T14:57:18;18.30;;;2.90;;
73550;SDS011;61816;53.582;10.096;2022-07-10T14:59:44;21.58;;;3.45;;
73550;SDS011;61816;53.582;10.096;2022-07-10T15:02:09;14.77;;;3.22;;
73550;SDS011;61816;53.582;10.096;2022-07-10T15:04:35;17.30;;;2.67;;